Time;durP1;ratioP1;P1;durP2;ratioP2;P2;SDS_P1;SDS_P2;PMS_P1;PMS_P2;Temp;Humidity;BMP_temperature;BMP_pressure;BME280_temperature;BME280_humidity;BME280_pressure;Samples;Min_cycle;Max_cycle;Signal;HPM_P1;HPM_P2
2023/09/09 00:00:46;;;;;;;15.87;11.60;;;17.90;99.90;;;;;;5008893;28;20176;-60
2023/09/09 00:03:12;;;;;;;13.23;11.73;;;17.90;99.90;;;;;;5005058;28;21031;-58
2023/09/09 00:05:38;;;;;;;19.67;12.50;;;17.90;99.90;;;;;;5007854;28;20430;-58
2023/09/09 00:08:04;;;;;;;14.27;12.10;;;17.80;99.90;;;;;;5007821;28;20469;-58
2023/09/09 00:10:30;;;;;;;15.53;11.77;;;17.80;99.90;;;;;;5005280;28;20526;-58
2023/09/09 00:12:59;;;;;;;15.93;11.57;;;17.80;99.90;;;;;;5004482;28;20195;-58
2023/09/09 00:15:24;;;;;;;14.37;11.47;;;17.80;99.90;;;;;;5006984;28;20243;-58
2023/09/09 00:17:50;;;;;;;18.10;11.90;;;17.70;99.90;;;;;;5007301;28;20459;-59
2023/09/09 00:20:16;;;;;;;12.57;11.10;;;17.70;99.90;;;;;;5005576;28;20271;-58
2023/09/09 00:22:42;;;;;;;14.00;10.90;;;17.70;99.90;;;;;;5008190;28;20499;-58
2023/09/09 00:25:08;;;;;;;13.27;11.40;;;17.60;99.90;;;;;;5006613;28;20219;-58
2023/09/09 00:27:33;;;;;;;16.57;11.30;;;17.60;99.90;;;;;;5009178;28;20756;-59
2023/09/09 00:29:59;;;;;;;17.50;10.80;;;17.60;99.90;;;;;;5007149;28;20439;-59
2023/09/09 00:32:24;;;;;;;15.93;11.73;;;17.60;99.90;;;;;;5007892;28;20247;-58
2023/09/09 00:34:52;;;;;;;19.10;11.80;;;17.60;99.90;;;;;;5004468;28;20180;-58
2023/09/09 00:37:17;;;;;;;14.60;11.43;;;17.50;99.90;;;;;;5006795;28;20215;-58
2023/09/09 00:39:43;;;;;;;14.47;11.07;;;17.50;99.90;;;;;;5006766;28;20482;-60
2023/09/09 00:42:08;;;;;;;18.13;11.73;;;17.50;99.90;;;;;;5000823;28;20188;-59
2023/09/09 00:44:34;;;;;;;14.33;11.30;;;17.50;99.90;;;;;;5007857;28;20645;-60
2023/09/09 00:47:00;;;;;;;19.90;10.73;;;17.40;99.90;;;;;;5005704;28;20198;-59
2023/09/09 00:49:26;;;;;;;15.90;12.37;;;17.40;99.90;;;;;;5002546;28;20188;-60
2023/09/09 00:51:53;;;;;;;12.97;10.80;;;17.40;99.90;;;;;;5003158;28;20176;-59
2023/09/09 00:54:18;;;;;;;16.07;11.20;;;17.40;99.90;;;;;;5005749;28;20435;-60
2023/09/09 00:56:45;;;;;;;17.40;11.87;;;17.40;99.90;;;;;;5006746;28;20842;-59
2023/09/09 00:59:12;;;;;;;14.63;11.23;;;17.40;99.90;;;;;;5008981;28;20200;-59
2023/09/09 01:01:37;;;;;;;17.67;11.43;;;17.40;99.90;;;;;;5008162;28;20432;-59
2023/09/09 01:04:03;;;;;;;15.60;12.00;;;17.30;99.90;;;;;;5005817;28;20498;-59
2023/09/09 01:06:29;;;;;;;17.37;11.83;;;17.30;99.90;;;;;;5002285;28;20343;-60
2023/09/09 01:08:55;;;;;;;14.37;10.67;;;17.30;99.90;;;;;;5005970;28;20531;-59
2023/09/09 01:11:20;;;;;;;14.77;11.03;;;17.30;99.90;;;;;;5006736;28;20604;-59
2023/09/09 01:13:46;;;;;;;15.80;12.10;;;17.30;99.90;;;;;;5007405;28;20177;-59
2023/09/09 01:16:13;;;;;;;16.03;11.50;;;17.30;99.90;;;;;;5003054;28;20716;-59
2023/09/09 01:18:38;;;;;;;14.80;11.00;;;17.20;99.90;;;;;;5003282;28;20247;-59
2023/09/09 01:21:08;;;;;;;13.90;10.90;;;17.20;99.90;;;;;;5005802;28;20459;-60
2023/09/09 01:23:34;;;;;;;16.10;11.37;;;17.20;99.90;;;;;;5007511;28;20175;-59
2023/09/09 01:26:00;;;;;;;12.17;10.30;;;17.20;99.90;;;;;;5001718;28;20451;-59
2023/09/09 01:28:26;;;;;;;17.83;11.80;;;17.10;99.90;;;;;;5007685;28;21018;-59
2023/09/09 01:30:52;;;;;;;19.03;11.60;;;17.10;99.90;;;;;;5009386;28;20199;-59
2023/09/09 01:33:18;;;;;;;16.97;11.63;;;17.10;99.90;;;;;;5011982;28;20671;-59
2023/09/09 01:35:44;;;;;;;12.77;10.47;;;17.10;99.90;;;;;;5009158;28;20442;-59
2023/09/09 01:38:10;;;;;;;14.20;11.23;;;17.00;99.90;;;;;;5006936;28;20199;-59
2023/09/09 01:40:36;;;;;;;17.70;11.70;;;17.00;99.90;;;;;;5005344;28;20428;-59
2023/09/09 01:43:02;;;;;;;16.67;12.10;;;17.00;99.90;;;;;;5004750;28;20271;-58
2023/09/09 01:45:27;;;;;;;14.63;11.23;;;17.00;99.90;;;;;;5005237;28;20211;-60
2023/09/09 01:47:53;;;;;;;14.73;12.23;;;17.00;99.90;;;;;;5001218;28;20958;-59
2023/09/09 01:50:19;;;;;;;17.23;12.80;;;17.00;99.90;;;;;;5011315;28;20181;-61
2023/09/09 01:52:44;;;;;;;15.30;12.57;;;17.00;99.90;;;;;;5008727;28;20243;-59
2023/09/09 01:55:10;;;;;;;14.13;11.97;;;17.00;99.90;;;;;;5007849;28;20263;-59
2023/09/09 01:57:35;;;;;;;14.53;11.93;;;16.90;99.90;;;;;;5012091;28;20578;-60
2023/09/09 02:00:07;;;;;;;18.00;12.13;;;16.90;99.90;;;;;;5003932;28;20674;-59
2023/09/09 02:02:33;;;;;;;21.50;11.70;;;16.90;99.90;;;;;;5009092;28;20568;-59
2023/09/09 02:04:59;;;;;;;18.50;12.20;;;16.90;99.90;;;;;;5009817;28;20431;-60
2023/09/09 02:07:24;;;;;;;14.97;11.20;;;16.90;99.90;;;;;;5007371;28;20535;-59
2023/09/09 02:09:50;;;;;;;16.07;11.30;;;16.90;99.90;;;;;;5009063;28;20733;-61
2023/09/09 02:12:15;;;;;;;12.77;11.37;;;16.90;99.90;;;;;;5007831;28;20184;-60
2023/09/09 02:14:41;;;;;;;17.73;11.53;;;16.80;99.90;;;;;;5009385;28;20177;-61
2023/09/09 02:17:07;;;;;;;24.40;12.73;;;16.80;99.90;;;;;;5008416;28;20331;-58
2023/09/09 02:19:33;;;;;;;14.27;11.47;;;16.80;99.90;;;;;;5011071;28;20324;-59
2023/09/09 02:21:58;;;;;;;15.37;11.60;;;16.70;99.90;;;;;;5008979;28;20445;-59
2023/09/09 02:24:24;;;;;;;18.70;12.20;;;16.70;99.90;;;;;;5009331;28;20180;-59
2023/09/09 02:26:50;;;;;;;14.37;11.40;;;16.70;99.90;;;;;;5006118;28;20759;-59
2023/09/09 02:29:15;;;;;;;17.60;10.57;;;16.70;99.90;;;;;;5009370;28;20207;-59
2023/09/09 02:31:41;;;;;;;18.90;11.47;;;16.70;99.90;;;;;;5004149;28;20294;-60
2023/09/09 02:34:07;;;;;;;16.10;11.23;;;16.70;99.90;;;;;;5007816;28;20184;-59
2023/09/09 02:36:32;;;;;;;12.93;10.80;;;16.70;99.90;;;;;;4998990;28;20201;-58
2023/09/09 02:38:58;;;;;;;18.00;12.70;;;16.60;99.90;;;;;;5001634;28;20907;-59
2023/09/09 02:41:23;;;;;;;17.67;12.27;;;16.60;99.90;;;;;;4999998;28;20550;-59
2023/09/09 02:43:49;;;;;;;15.40;11.17;;;16.60;99.90;;;;;;5003708;28;20196;-60
2023/09/09 02:46:14;;;;;;;19.80;11.73;;;16.60;99.90;;;;;;5001761;28;20207;-59
2023/09/09 02:48:40;;;;;;;16.63;12.33;;;16.50;99.90;;;;;;5005057;28;20184;-61
2023/09/09 02:51:06;;;;;;;15.60;10.80;;;16.50;99.90;;;;;;5001911;28;20312;-59
2023/09/09 02:53:31;;;;;;;14.47;11.27;;;16.50;99.90;;;;;;5000288;28;20654;-62
2023/09/09 02:55:57;;;;;;;18.13;11.27;;;16.50;99.90;;;;;;5000406;28;20176;-59
2023/09/09 02:58:22;;;;;;;13.50;10.70;;;16.50;99.90;;;;;;4999811;28;20278;-59
2023/09/09 03:00:48;;;;;;;14.30;10.90;;;16.40;99.90;;;;;;5000147;28;20689;-58
2023/09/09 03:03:15;;;;;;;14.73;11.23;;;16.40;99.90;;;;;;5003910;28;20182;-61
2023/09/09 03:05:41;;;;;;;16.33;11.87;;;16.40;99.90;;;;;;5003632;28;20653;-58
2023/09/09 03:08:07;;;;;;;12.97;11.13;;;16.40;99.90;;;;;;4999170;28;20432;-60
2023/09/09 03:10:32;;;;;;;18.97;11.60;;;16.40;99.90;;;;;;5000610;28;20568;-61
2023/09/09 03:12:58;;;;;;;13.23;10.80;;;16.40;99.90;;;;;;5005383;28;20542;-59
2023/09/09 03:15:24;;;;;;;17.23;11.30;;;16.30;99.90;;;;;;5000881;28;20184;-61
2023/09/09 03:17:49;;;;;;;12.33;11.00;;;16.30;99.90;;;;;;5004232;28;20208;-58
2023/09/09 03:20:16;;;;;;;12.27;10.53;;;16.30;99.90;;;;;;5002964;28;20172;-59
2023/09/09 03:22:41;;;;;;;15.83;11.77;;;16.30;99.90;;;;;;5001621;28;20180;-59
2023/09/09 03:25:08;;;;;;;14.47;12.10;;;16.30;99.90;;;;;;4996990;28;20454;-57
2023/09/09 03:27:34;;;;;;;16.40;11.67;;;16.30;99.90;;;;;;4998974;28;20221;-59
2023/09/09 03:30:00;;;;;;;15.00;11.30;;;16.20;99.90;;;;;;5000101;28;20521;-59
2023/09/09 03:32:26;;;;;;;13.40;10.80;;;16.20;99.90;;;;;;5002274;28;20432;-58
2023/09/09 03:34:55;;;;;;;14.43;11.60;;;16.20;99.90;;;;;;4999539;28;20200;-59
2023/09/09 03:37:21;;;;;;;14.40;11.57;;;16.20;99.90;;;;;;5001815;28;20204;-62
2023/09/09 03:39:48;;;;;;;19.93;11.00;;;16.20;99.90;;;;;;4999977;28;20522;-61
2023/09/09 03:42:13;;;;;;;20.53;12.53;;;16.20;99.90;;;;;;4996618;28;20443;-60
2023/09/09 03:44:40;;;;;;;14.67;11.80;;;16.20;99.90;;;;;;4998907;28;20442;-60
2023/09/09 03:47:05;;;;;;;13.33;11.23;;;16.10;99.90;;;;;;5015713;28;21581;-59
2023/09/09 03:49:31;;;;;;;14.37;11.27;;;16.10;99.90;;;;;;4999350;28;20431;-59
2023/09/09 03:51:57;;;;;;;15.80;11.30;;;16.10;99.90;;;;;;5002475;28;20873;-59
2023/09/09 03:54:22;;;;;;;13.93;10.87;;;16.10;99.90;;;;;;4999883;28;20195;-59
2023/09/09 03:56:49;;;;;;;14.43;11.03;;;16.10;99.90;;;;;;4997413;28;20778;-60
2023/09/09 03:59:15;;;;;;;14.27;10.93;;;16.10;99.90;;;;;;5005385;28;20200;-59
2023/09/09 04:01:40;;;;;;;18.47;12.23;;;16.10;99.90;;;;;;5006812;28;20423;-59
2023/09/09 04:04:06;;;;;;;24.07;11.43;;;16.00;99.90;;;;;;5008515;28;20183;-58
2023/09/09 04:06:31;;;;;;;12.20;10.07;;;16.00;99.90;;;;;;5006104;28;20684;-59
2023/09/09 04:08:58;;;;;;;12.40;10.30;;;16.00;99.90;;;;;;5006286;28;20677;-59
2023/09/09 04:11:24;;;;;;;16.67;11.20;;;15.90;99.90;;;;;;5006401;28;20661;-59
2023/09/09 04:13:49;;;;;;;18.90;11.90;;;15.90;99.90;;;;;;5008666;28;20488;-59
2023/09/09 04:16:15;;;;;;;17.70;12.53;;;15.90;99.90;;;;;;5003859;28;20664;-59
2023/09/09 04:18:40;;;;;;;16.50;12.07;;;15.90;99.90;;;;;;5006020;28;20913;-60
2023/09/09 04:21:06;;;;;;;21.53;11.87;;;15.90;99.90;;;;;;5009428;28;20238;-58
2023/09/09 04:23:32;;;;;;;16.70;11.60;;;15.90;99.90;;;;;;5008671;28;20223;-59
2023/09/09 04:25:57;;;;;;;30.33;12.17;;;15.80;99.90;;;;;;5000506;28;20179;-60
2023/09/09 04:28:26;;;;;;;15.83;11.27;;;15.80;99.90;;;;;;5009028;28;20751;-59
2023/09/09 04:30:52;;;;;;;18.57;12.37;;;15.80;99.90;;;;;;5007728;28;20247;-59
2023/09/09 04:33:17;;;;;;;13.07;10.90;;;15.70;99.90;;;;;;5005664;28;20435;-59
2023/09/09 04:35:43;;;;;;;38.67;12.37;;;15.70;99.90;;;;;;5008308;28;20196;-59
2023/09/09 04:38:09;;;;;;;15.30;11.80;;;15.70;99.90;;;;;;5004458;28;20243;-59
2023/09/09 04:40:38;;;;;;;20.37;11.60;;;15.60;99.90;;;;;;5006241;28;20968;-60
2023/09/09 04:43:03;;;;;;;20.80;10.90;;;15.60;99.90;;;;;;5008211;28;20431;-61
2023/09/09 04:45:29;;;;;;;19.97;10.97;;;15.60;99.90;;;;;;5006684;28;20526;-58
2023/09/09 04:47:55;;;;;;;19.40;11.13;;;15.60;99.90;;;;;;5004881;28;20196;-59
2023/09/09 04:50:21;;;;;;;21.03;10.90;;;15.50;99.90;;;;;;5006913;28;20751;-58
2023/09/09 04:52:47;;;;;;;12.83;10.77;;;15.50;99.90;;;;;;5008745;28;20176;-59
2023/09/09 04:55:13;;;;;;;16.03;11.07;;;15.50;99.90;;;;;;5006395;28;20644;-59
2023/09/09 04:57:40;;;;;;;20.83;11.47;;;15.50;99.90;;;;;;5005257;28;20467;-58
2023/09/09 05:00:07;;;;;;;16.37;10.53;;;15.50;99.90;;;;;;5008013;28;20431;-58
2023/09/09 05:02:38;;;;;;;13.83;11.60;;;15.50;99.90;;;;;;5007115;28;20435;-59
2023/09/09 05:05:05;;;;;;;17.03;11.57;;;15.50;99.90;;;;;;5004932;28;20466;-59
2023/09/09 05:07:35;;;;;;;15.47;10.70;;;15.50;99.90;;;;;;5008249;28;20451;-60
2023/09/09 05:10:05;;;;;;;17.10;12.10;;;15.50;99.90;;;;;;5006091;28;20463;-60
2023/09/09 05:12:31;;;;;;;22.93;10.73;;;15.50;99.90;;;;;;4998955;28;20458;-58
2023/09/09 05:14:57;;;;;;;13.73;10.77;;;15.40;99.90;;;;;;5005167;28;20966;-59
2023/09/09 05:17:23;;;;;;;16.17;10.90;;;15.50;99.90;;;;;;5006959;28;21040;-59
2023/09/09 05:19:48;;;;;;;13.60;10.77;;;15.50;99.90;;;;;;5008626;28;20503;-59
2023/09/09 05:22:14;;;;;;;12.73;11.03;;;15.40;99.90;;;;;;5000358;28;20177;-58
2023/09/09 05:24:39;;;;;;;20.73;10.53;;;15.50;99.90;;;;;;5003904;28;20216;-58
2023/09/09 05:27:05;;;;;;;27.83;11.83;;;15.40;99.90;;;;;;5007064;28;20193;-59
2023/09/09 05:29:31;;;;;;;24.17;11.13;;;15.40;99.90;;;;;;5007989;28;20188;-60
2023/09/09 05:31:57;;;;;;;19.47;9.80;;;15.40;99.90;;;;;;5002592;28;20493;-58
2023/09/09 05:34:22;;;;;;;38.03;11.30;;;15.40;99.90;;;;;;5005464;28;20177;-58
2023/09/09 05:36:48;;;;;;;28.70;11.57;;;15.30;99.90;;;;;;5006829;28;20223;-59
2023/09/09 05:39:14;;;;;;;26.80;11.67;;;15.30;99.90;;;;;;5004667;28;20284;-60
2023/09/09 05:41:39;;;;;;;42.77;12.07;;;15.30;99.90;;;;;;5006385;28;20173;-60
2023/09/09 05:44:05;;;;;;;24.03;11.17;;;15.30;99.90;;;;;;5006342;28;20180;-58
2023/09/09 05:46:31;;;;;;;22.77;11.17;;;15.30;99.90;;;;;;5004130;28;20203;-59
2023/09/09 05:48:56;;;;;;;13.97;11.67;;;15.30;99.90;;;;;;5003204;28;20195;-59
2023/09/09 05:51:22;;;;;;;12.63;10.37;;;15.30;99.90;;;;;;5001676;28;20240;-60
2023/09/09 05:53:51;;;;;;;13.00;11.47;;;15.30;99.90;;;;;;5004211;28;20172;-58
2023/09/09 05:56:17;;;;;;;14.70;11.87;;;15.40;99.90;;;;;;5004056;28;20200;-58
2023/09/09 05:58:43;;;;;;;13.30;11.47;;;15.40;99.90;;;;;;5002541;28;20521;-59
2023/09/09 06:01:08;;;;;;;12.80;11.00;;;15.40;99.90;;;;;;5008598;28;20443;-58
2023/09/09 06:03:35;;;;;;;14.17;10.43;;;15.50;99.90;;;;;;5005947;28;20219;-59
2023/09/09 06:06:02;;;;;;;14.10;11.80;;;15.50;99.90;;;;;;5006019;28;20180;-60
2023/09/09 06:08:28;;;;;;;13.60;11.47;;;15.60;99.90;;;;;;5004138;28;20489;-58
2023/09/09 06:10:54;;;;;;;14.37;11.67;;;15.60;99.90;;;;;;5004107;28;20447;-58
2023/09/09 06:13:19;;;;;;;12.70;10.40;;;15.70;99.90;;;;;;5002202;28;20447;-57
2023/09/09 06:15:45;;;;;;;12.30;11.00;;;15.70;99.90;;;;;;4996631;28;20184;-55
2023/09/09 06:18:10;;;;;;;13.70;10.33;;;15.80;99.90;;;;;;4998768;28;20212;-56
2023/09/09 06:20:36;;;;;;;12.30;10.43;;;15.80;99.90;;;;;;5002943;28;20210;-58
2023/09/09 06:23:01;;;;;;;14.27;10.53;;;15.90;99.90;;;;;;4997297;28;20230;-57
2023/09/09 06:25:29;;;;;;;12.47;10.27;;;15.90;99.90;;;;;;4997950;28;20275;-57
2023/09/09 06:27:54;;;;;;;11.90;9.93;;;16.00;99.90;;;;;;5000519;28;20469;-58
2023/09/09 06:30:20;;;;;;;13.33;11.80;;;16.00;99.90;;;;;;5000295;28;20439;-57
2023/09/09 06:32:45;;;;;;;13.43;11.20;;;16.10;99.90;;;;;;5004189;28;20188;-56
2023/09/09 06:35:11;;;;;;;13.90;10.77;;;16.20;99.90;;;;;;5002913;28;20641;-56
2023/09/09 06:37:37;;;;;;;14.20;11.00;;;16.20;99.90;;;;;;5005022;28;20219;-56
2023/09/09 06:40:03;;;;;;;13.10;11.03;;;16.30;99.90;;;;;;4994977;28;20184;-57
2023/09/09 06:42:29;;;;;;;12.80;9.90;;;16.40;99.90;;;;;;5000973;28;20176;-55
2023/09/09 06:44:55;;;;;;;12.53;10.60;;;16.50;99.90;;;;;;5002519;28;20826;-58
2023/09/09 06:47:20;;;;;;;13.80;10.40;;;16.60;99.90;;;;;;5000312;28;20223;-57
2023/09/09 06:49:46;;;;;;;19.20;12.17;;;16.70;99.90;;;;;;5004208;28;20963;-57
2023/09/09 06:52:11;;;;;;;20.23;13.40;;;16.80;99.90;;;;;;5004967;28;20184;-57
2023/09/09 06:54:37;;;;;;;16.97;12.43;;;16.90;99.90;;;;;;5000107;28;20680;-57
2023/09/09 06:57:03;;;;;;;17.93;12.97;;;16.90;99.90;;;;;;5008271;22;20220;-55
2023/09/09 06:59:30;;;;;;;27.73;14.67;;;17.00;99.90;;;;;;4973930;28;20776;-57
2023/09/09 07:01:56;;;;;;;23.93;15.07;;;17.10;99.90;;;;;;4974287;28;20300;-57
2023/09/09 07:04:21;;;;;;;22.57;14.30;;;17.10;99.90;;;;;;4975920;28;20432;-56
2023/09/09 07:06:47;;;;;;;24.23;14.20;;;17.20;99.90;;;;;;4977544;28;20741;-57
2023/09/09 07:09:13;;;;;;;24.50;14.27;;;17.20;99.90;;;;;;4975985;28;20192;-58
2023/09/09 07:11:38;;;;;;;23.67;15.83;;;17.40;99.90;;;;;;4982912;28;20181;-56
2023/09/09 07:14:04;;;;;;;18.00;14.00;;;17.40;99.90;;;;;;4983202;28;20185;-56
2023/09/09 07:16:31;;;;;;;17.60;13.50;;;17.50;99.90;;;;;;4971873;28;20208;-56
2023/09/09 07:18:57;;;;;;;20.50;13.37;;;17.60;99.90;;;;;;4977368;28;20293;-55
2023/09/09 07:21:22;;;;;;;13.40;11.50;;;17.70;99.90;;;;;;4977851;28;20556;-56
2023/09/09 07:23:48;;;;;;;16.60;11.90;;;17.80;99.90;;;;;;4979688;28;20495;-56
2023/09/09 07:26:14;;;;;;;16.23;12.37;;;17.90;99.90;;;;;;4981258;28;20208;-56
2023/09/09 07:28:40;;;;;;;14.43;12.70;;;18.00;99.90;;;;;;4980518;28;20889;-56
2023/09/09 07:31:05;;;;;;;15.97;12.53;;;18.10;99.90;;;;;;4977760;28;20184;-55
2023/09/09 07:33:31;;;;;;;16.47;12.27;;;18.20;99.90;;;;;;4984169;28;20173;-56
2023/09/09 07:35:57;;;;;;;15.80;11.73;;;18.30;99.90;;;;;;4978709;28;20195;-57
2023/09/09 07:38:22;;;;;;;15.50;12.53;;;18.40;99.90;;;;;;4978338;28;20567;-56
2023/09/09 07:40:48;;;;;;;16.37;12.60;;;18.50;99.90;;;;;;4977472;28;20185;-57
2023/09/09 07:43:14;;;;;;;16.53;12.63;;;18.60;99.90;;;;;;4982273;28;20268;-55
2023/09/09 07:45:47;;;;;;;16.53;12.93;;;18.70;99.90;;;;;;4981909;28;20188;-55
2023/09/09 07:48:13;;;;;;;16.77;11.97;;;18.80;99.90;;;;;;4981792;28;20523;-56
2023/09/09 07:50:38;;;;;;;15.00;12.67;;;18.90;99.90;;;;;;4988986;28;20911;-55
2023/09/09 07:53:04;;;;;;;17.33;12.30;;;19.00;99.90;;;;;;4986307;28;20193;-55
2023/09/09 07:55:29;;;;;;;15.80;12.27;;;19.10;99.90;;;;;;4988298;28;20173;-55
2023/09/09 07:57:55;;;;;;;15.00;13.13;;;19.20;99.90;;;;;;4980987;28;20256;-57
2023/09/09 08:00:21;;;;;;;15.87;13.20;;;19.30;99.90;;;;;;4979891;28;20200;-55
2023/09/09 08:02:46;;;;;;;19.53;14.13;;;19.40;99.90;;;;;;4979751;28;20177;-55
2023/09/09 08:05:13;;;;;;;22.63;14.97;;;19.60;99.90;;;;;;4985607;28;20181;-55
2023/09/09 08:07:39;;;;;;;20.03;15.70;;;19.70;99.90;;;;;;4983691;28;20301;-57
2023/09/09 08:10:08;;;;;;;24.17;15.00;;;19.80;99.90;;;;;;4982857;28;20460;-57
2023/09/09 08:12:34;;;;;;;19.10;16.40;;;19.90;99.90;;;;;;4978048;28;20221;-55
2023/09/09 08:15:08;;;;;;;20.50;15.70;;;20.00;99.90;;;;;;4981397;28;20436;-57
2023/09/09 08:17:34;;;;;;;19.43;15.77;;;20.10;99.90;;;;;;4985548;28;20198;-55
2023/09/09 08:19:59;;;;;;;25.43;17.00;;;20.20;99.90;;;;;;4985398;28;20772;-56
2023/09/09 08:22:28;;;;;;;23.67;16.03;;;20.40;99.90;;;;;;4982444;28;20425;-55
2023/09/09 08:24:54;;;;;;;24.00;16.40;;;20.50;99.90;;;;;;4983990;28;20189;-55
2023/09/09 08:27:19;;;;;;;20.97;16.77;;;20.60;99.90;;;;;;4985439;28;20545;-55
2023/09/09 08:29:45;;;;;;;23.50;17.67;;;20.80;99.90;;;;;;4980501;28;20397;-55
2023/09/09 08:32:10;;;;;;;26.60;16.83;;;20.90;99.90;;;;;;4982920;28;20184;-56
2023/09/09 08:34:37;;;;;;;25.40;17.47;;;21.00;99.90;;;;;;4976575;28;20181;-55
2023/09/09 08:37:02;;;;;;;18.50;15.67;;;21.20;99.90;;;;;;4976503;28;20202;-56
2023/09/09 08:39:28;;;;;;;28.70;15.80;;;21.30;99.90;;;;;;4982356;28;20874;-56
2023/09/09 08:42:31;;;;;;;25.30;16.40;;;21.40;99.90;;;;;;4986846;28;20192;-57
2023/09/09 08:45:24;;;;;;;22.50;16.53;;;21.60;99.90;;;;;;4975825;28;20272;-56
2023/09/09 08:47:52;;;;;;;20.03;15.77;;;21.70;99.90;;;;;;4983687;28;20478;-56
2023/09/09 08:50:20;;;;;;;20.03;14.43;;;21.90;99.90;;;;;;4981510;28;20436;-56
2023/09/09 08:52:48;;;;;;;16.93;13.60;;;22.00;99.90;;;;;;4984666;28;20445;-56
2023/09/09 08:55:15;;;;;;;16.63;12.60;;;22.20;99.90;;;;;;4983151;28;20439;-57
2023/09/09 08:57:40;;;;;;;15.23;11.70;;;22.40;99.90;;;;;;4978614;28;20468;-56
2023/09/09 09:00:07;;;;;;;18.17;12.50;;;22.60;99.90;;;;;;4983018;28;20451;-56
2023/09/09 09:02:34;;;;;;;14.07;11.77;;;22.80;99.90;;;;;;4982442;28;20166;-56
2023/09/09 09:05:02;;;;;;;14.97;10.70;;;22.90;99.90;;;;;;4983578;28;20529;-58
2023/09/09 09:07:29;;;;;;;16.67;11.40;;;23.10;99.90;;;;;;4977714;28;20807;-56
2023/09/09 09:09:55;;;;;;;13.20;10.73;;;23.20;99.90;;;;;;4986290;28;20860;-56
2023/09/09 09:12:21;;;;;;;12.70;10.77;;;23.40;99.90;;;;;;4984290;28;20463;-56
2023/09/09 09:14:47;;;;;;;15.73;11.77;;;23.60;99.90;;;;;;4988451;28;20185;-56
2023/09/09 09:17:18;;;;;;;12.30;10.63;;;23.70;99.90;;;;;;4987015;28;21027;-53
2023/09/09 09:19:43;;;;;;;14.90;11.30;;;23.90;99.90;;;;;;4988969;28;21259;-54
2023/09/09 09:22:11;;;;;;;14.43;8.80;;;24.00;99.90;;;;;;4982261;28;20519;-55
2023/09/09 09:24:45;;;;;;;11.07;9.17;;;24.20;99.90;;;;;;4982963;28;20173;-54
2023/09/09 09:27:11;;;;;;;10.50;8.53;;;24.30;99.90;;;;;;4984858;28;20526;-55
2023/09/09 09:29:42;;;;;;;13.73;8.40;;;24.40;98.50;;;;;;4987707;28;20948;-54
2023/09/09 09:32:10;;;;;;;13.00;8.43;;;24.50;92.70;;;;;;4974689;28;20432;-55
2023/09/09 09:34:36;;;;;;;9.30;8.00;;;24.60;93.90;;;;;;4974613;28;20436;-55
2023/09/09 09:37:10;;;;;;;11.70;8.30;;;24.70;92.30;;;;;;4983234;28;20487;-55
2023/09/09 09:39:36;;;;;;;10.17;8.37;;;24.90;92.40;;;;;;4983834;28;20204;-55
2023/09/09 09:42:02;;;;;;;8.17;7.37;;;24.90;93.00;;;;;;4982845;28;20612;-56
2023/09/09 09:44:28;;;;;;;9.47;7.73;;;25.00;91.00;;;;;;4977270;28;20177;-54
2023/09/09 09:47:03;;;;;;;9.00;8.10;;;25.00;82.80;;;;;;4978572;28;20501;-54
2023/09/09 09:49:40;;;;;;;12.90;8.73;;;25.10;87.60;;;;;;4984730;28;20670;-55
2023/09/09 09:52:07;;;;;;;10.57;7.97;;;25.20;84.00;;;;;;4983448;28;20474;-54
2023/09/09 09:54:34;;;;;;;14.03;7.80;;;25.20;81.10;;;;;;4985929;28;20534;-54
2023/09/09 09:57:02;;;;;;;10.10;7.50;;;25.20;83.80;;;;;;4991232;28;20467;-55
2023/09/09 09:59:38;;;;;;;11.90;8.00;;;25.40;84.30;;;;;;4986456;28;20498;-55
2023/09/09 10:02:03;;;;;;;9.40;8.20;;;25.60;78.20;;;;;;4989726;28;20455;-54
2023/09/09 10:04:38;;;;;;;8.53;7.17;;;25.80;74.50;;;;;;4980419;28;20860;-55
2023/09/09 10:07:07;;;;;;;9.27;7.47;;;26.00;74.40;;;;;;4981809;28;20200;-55
2023/09/09 10:09:40;;;;;;;9.17;7.63;;;26.20;74.80;;;;;;4977133;28;20440;-55
2023/09/09 10:12:44;;;;;;;11.03;8.70;;;26.40;72.80;;;;;;4980380;28;20528;-56
2023/09/09 10:15:11;;;;;;;8.43;7.47;;;26.60;69.20;;;;;;4983322;28;20435;-54
2023/09/09 10:17:39;;;;;;;12.50;8.80;;;26.70;68.00;;;;;;4975436;28;20460;-55
2023/09/09 10:20:06;;;;;;;10.00;7.50;;;26.80;65.40;;;;;;4978937;28;20539;-54
2023/09/09 10:22:33;;;;;;;10.93;8.13;;;26.80;67.00;;;;;;4990112;28;20432;-54
2023/09/09 10:25:03;;;;;;;11.03;8.30;;;27.00;68.20;;;;;;4982889;28;20250;-55
2023/09/09 10:27:29;;;;;;;10.17;8.93;;;27.10;67.60;;;;;;4981915;28;20331;-51
2023/09/09 10:29:57;;;;;;;11.23;8.10;;;27.30;65.20;;;;;;4985353;28;20187;-54
2023/09/09 10:32:25;;;;;;;12.77;8.53;;;27.30;64.40;;;;;;4975799;28;20273;-50
2023/09/09 10:34:52;;;;;;;9.53;7.60;;;27.20;62.20;;;;;;4983496;28;20634;-54
2023/09/09 10:37:19;;;;;;;9.97;7.80;;;27.20;65.00;;;;;;4984456;28;20287;-52
2023/09/09 10:39:47;;;;;;;14.00;8.80;;;27.20;63.60;;;;;;4985514;28;20224;-51
2023/09/09 10:42:15;;;;;;;15.80;8.97;;;27.00;64.70;;;;;;4983798;28;20192;-53
2023/09/09 10:44:40;;;;;;;11.47;8.70;;;27.00;66.80;;;;;;4978735;28;20177;-51
2023/09/09 10:47:08;;;;;;;12.13;8.07;;;27.10;67.30;;;;;;4986555;28;20685;-52
2023/09/09 10:49:34;;;;;;;16.13;8.57;;;27.00;67.60;;;;;;4981225;28;20302;-53
2023/09/09 10:51:59;;;;;;;9.63;7.77;;;27.00;68.00;;;;;;4981689;28;20648;-52
2023/09/09 10:54:26;;;;;;;9.20;8.30;;;26.90;67.50;;;;;;4982755;28;20181;-52
2023/09/09 10:56:55;;;;;;;8.57;7.77;;;27.00;69.70;;;;;;4988002;28;20303;-53
2023/09/09 10:59:21;;;;;;;11.13;8.43;;;27.20;69.10;;;;;;4981775;28;20197;-53
2023/09/09 11:01:48;;;;;;;10.83;7.90;;;27.40;67.60;;;;;;4985030;28;20264;-53
2023/09/09 11:04:19;;;;;;;12.20;8.07;;;27.60;67.00;;;;;;4974950;28;20239;-51
2023/09/09 11:07:08;;;;;;;9.83;7.87;;;27.80;65.80;;;;;;4981047;28;20752;-51
2023/09/09 11:09:35;;;;;;;9.23;8.07;;;28.00;68.50;;;;;;4976650;28;20672;-51
2023/09/09 11:12:14;;;;;;;10.52;7.75;;;28.20;62.70;;;;;;4979155;28;20185;-52
2023/09/09 11:14:56;;;;;;;9.07;7.43;;;28.20;59.80;;;;;;4980027;28;20751;-53
2023/09/09 11:17:22;;;;;;;10.38;8.48;;;28.20;59.40;;;;;;4979128;28;20207;-51
2023/09/09 11:19:49;;;;;;;12.77;8.65;;;28.30;60.40;;;;;;4978388;28;20212;-51
2023/09/09 11:22:16;;;;;;;13.20;7.60;;;28.40;57.80;;;;;;4976748;28;20231;-52
2023/09/09 11:24:42;;;;;;;15.48;8.27;;;28.50;57.70;;;;;;4977142;28;20189;-54
2023/09/09 11:27:09;;;;;;;12.48;7.93;;;28.50;59.50;;;;;;4978217;28;20208;-53
2023/09/09 11:29:34;;;;;;;11.15;8.02;;;28.50;57.80;;;;;;4979719;28;20251;-51
2023/09/09 11:32:00;;;;;;;9.68;7.53;;;28.40;56.80;;;;;;4982991;28;20738;-53
2023/09/09 11:34:33;;;;;;;8.40;7.60;;;28.10;55.80;;;;;;4983670;28;20192;-55
2023/09/09 11:37:03;;;;;;;7.93;6.55;;;27.90;56.10;;;;;;4983210;28;20828;-51
2023/09/09 11:39:29;;;;;;;13.93;8.10;;;27.60;56.60;;;;;;4981762;28;20205;-52
2023/09/09 11:41:54;;;;;;;10.23;7.78;;;27.60;56.20;;;;;;4979323;28;20188;-52
2023/09/09 11:44:20;;;;;;;10.90;8.15;;;27.80;57.90;;;;;;4982415;28;20188;-53
2023/09/09 11:46:47;;;;;;;9.63;7.93;;;28.10;58.00;;;;;;4984869;28;20259;-55
2023/09/09 11:49:16;;;;;;;10.35;7.32;;;28.30;58.10;;;;;;4980200;28;20628;-55
2023/09/09 11:51:42;;;;;;;9.77;7.63;;;28.50;56.20;;;;;;4979208;28;20193;-57
2023/09/09 11:54:10;;;;;;;8.05;7.25;;;28.70;56.40;;;;;;4980171;28;20256;-56
2023/09/09 11:56:36;;;;;;;7.20;6.60;;;28.90;55.10;;;;;;4983065;28;20212;-57
2023/09/09 11:59:09;;;;;;;9.88;7.45;;;29.10;54.10;;;;;;4986343;28;20247;-58
2023/09/09 12:01:45;;;;;;;8.00;7.20;;;29.20;52.70;;;;;;4980566;28;20183;-57
2023/09/09 12:04:13;;;;;;;7.75;6.88;;;29.50;53.60;;;;;;4981444;28;20194;-57
2023/09/09 12:06:41;;;;;;;9.70;7.70;;;29.60;52.50;;;;;;4978891;28;20264;-57
2023/09/09 12:09:08;;;;;;;8.68;7.78;;;29.70;51.90;;;;;;4986365;28;20172;-59
2023/09/09 12:11:35;;;;;;;10.63;7.30;;;29.80;52.10;;;;;;4981543;28;20228;-57
2023/09/09 12:14:01;;;;;;;8.32;7.47;;;29.80;53.30;;;;;;4982725;28;20261;-56
2023/09/09 12:16:31;;;;;;;12.43;8.00;;;29.70;53.10;;;;;;4980861;28;20679;-59
2023/09/09 12:18:57;;;;;;;9.30;7.80;;;29.70;52.40;;;;;;4983071;28;20468;-57
2023/09/09 12:21:23;;;;;;;8.25;7.45;;;29.80;51.80;;;;;;4981526;28;20673;-59
2023/09/09 12:23:55;;;;;;;8.15;7.25;;;29.90;51.70;;;;;;4979057;28;20189;-58
2023/09/09 12:26:21;;;;;;;7.65;6.85;;;29.90;51.50;;;;;;4981962;28;20215;-56
2023/09/09 12:29:05;;;;;;;10.43;7.30;;;30.10;52.20;;;;;;4981141;28;20203;-57